Time;durP1;ratioP1;P1;durP2;ratioP2;P2;SDS_P1;SDS_P2;PMS_P1;PMS_P2;Temp;Humidity;BMP_temperature;BMP_pressure;BME280_temperature;BME280_humidity;BME280_pressure;Samples;Min_cycle;Max_cycle;Signal;HPM_P1;HPM_P2
2023/10/20 00:01:15;;;;;;;;;;;;;;;6.94;100.00;96623.72;5022694;28;19980;-83
2023/10/20 00:03:41;;;;;;;;;;;;;;;6.90;100.00;96628.38;5022088;28;19917;-83
2023/10/20 00:06:06;;;;;;;;;;;;;;;6.90;100.00;96631.84;5022629;28;19925;-83
2023/10/20 00:08:32;;;;;;;;;;;;;;;6.97;100.00;96624.31;5022499;28;20004;-83
2023/10/20 00:11:04;;;;;;;;;;;;;;;7.05;100.00;96618.44;5005091;28;20293;-83
2023/10/20 00:13:29;;;;;;;;;;;;;;;7.03;100.00;96618.56;5022459;28;20372;-83
2023/10/20 00:15:54;;;;;;;;;;;;;;;7.03;100.00;96618.56;5022661;28;19929;-83
2023/10/20 00:18:19;;;;;;;;;;;;;;;7.02;100.00;96608.16;5003814;28;19917;-83
2023/10/20 00:20:47;;;;;;;;;;;;;;;7.04;100.00;96607.09;5004899;28;19928;-85
2023/10/20 00:23:14;;;;;;;;;;;;;;;7.03;100.00;96597.50;5021487;28;19921;-84
2023/10/20 00:25:40;;;;;;;;;;;;;;;7.05;100.00;96592.97;5022292;28;19923;-83
2023/10/20 05:14:05;;;;;;;;;;;;;;;6.81;100.00;95931.78;4987165;28;19980;-87
2023/10/20 05:16:33;;;;;;;;;;;;;;;6.89;100.00;95919.59;5001897;28;20395;-87
2023/10/20 05:19:00;;;;;;;;;;;;;;;6.90;100.00;95916.00;5000847;28;20379;-86
2023/10/20 05:21:26;;;;;;;;;;;;;;;6.89;100.00;95913.50;5002561;28;19921;-86
2023/10/20 05:23:51;;;;;;;;;;;;;;;6.96;100.00;95898.00;5000849;28;20296;-86
2023/10/20 05:26:17;;;;;;;;;;;;;;;6.93;100.00;95893.84;5002218;28;20353;-86
2023/10/20 05:28:42;;;;;;;;;;;;;;;6.85;100.00;95884.00;5001227;28;20372;-86
2023/10/20 05:31:07;;;;;;;;;;;;;;;6.90;100.00;95873.06;5002286;28;19937;-89
2023/10/20 05:33:33;;;;;;;;;;;;;;;6.95;100.00;95881.38;5001911;28;20088;-87
2023/10/20 05:36:05;;;;;;;;;;;;;;;6.89;100.00;95880.13;5001868;28;19918;-87
2023/10/20 05:38:30;;;;;;;;;;;;;;;6.91;100.00;95875.56;5004995;28;19945;-86
2023/10/20 05:40:57;;;;;;;;;;;;;;;6.98;100.00;95860.03;5005718;28;20368;-94
2023/10/20 05:43:24;;;;;;;;;;;;;;;7.00;100.00;95852.81;5005292;28;19924;-87
2023/10/20 05:45:50;;;;;;;;;;;;;;;6.93;100.00;95867.53;5005908;28;19924;-87
2023/10/20 05:48:15;;;;;;;;;;;;;;;6.89;100.00;95872.25;5005744;28;19918;-88
2023/10/20 05:50:40;;;;;;;;;;;;;;;7.01;100.00;95856.31;5005665;28;19918;-87
2023/10/20 05:53:10;;;;;;;;;;;;;;;6.93;100.00;95846.47;5003963;28;19918;-89
2023/10/20 05:55:36;;;;;;;;;;;;;;;6.96;100.00;95848.00;5005366;28;19956;-86
2023/10/20 05:58:02;;;;;;;;;;;;;;;7.02;100.00;95853.53;5004178;28;19960;-86
2023/10/20 06:00:27;;;;;;;;;;;;;;;6.97;100.00;95842.56;5005455;28;20372;-86
2023/10/20 06:02:53;;;;;;;;;;;;;;;6.93;100.00;95840.38;5005855;28;20004;-87
2023/10/20 06:05:18;;;;;;;;;;;;;;;6.89;100.00;95840.66;5006036;28;20016;-86
2023/10/20 06:07:44;;;;;;;;;;;;;;;6.90;100.00;95841.47;5005660;28;19924;-85
2023/10/20 06:10:11;;;;;;;;;;;;;;;6.94;100.00;95842.03;5005288;28;19926;-84
2023/10/20 06:12:37;;;;;;;;;;;;;;;6.97;100.00;95853.09;5003849;28;19924;-85
2023/10/20 06:15:02;;;;;;;;;;;;;;;6.95;100.00;95857.69;5005121;28;19928;-86
2023/10/20 06:17:28;;;;;;;;;;;;;;;6.96;100.00;95861.97;5005012;28;20072;-86
2023/10/20 06:19:53;;;;;;;;;;;;;;;6.87;100.00;95866.25;5005005;28;19918;-86
2023/10/20 06:22:18;;;;;;;;;;;;;;;6.92;100.00;95871.13;5005749;28;19980;-86
2023/10/20 06:24:45;;;;;;;;;;;;;;;6.98;100.00;95865.31;5005613;28;19918;-86
2023/10/20 06:27:11;;;;;;;;;;;;;;;7.01;100.00;95872.91;5003460;28;19933;-86
2023/10/20 06:30:05;;;;;;;;;;;;;;;6.97;100.00;95866.25;5005283;28;19917;-86
2023/10/20 06:34:52;;;;;;;;;;;;;;;6.95;100.00;95862.94;5004876;28;19988;-86
2023/10/20 06:37:38;;;;;;;;;;;;;;;6.95;100.00;95876.09;5005460;28;19918;-86
2023/10/20 06:40:03;;;;;;;;;;;;;;;6.96;100.00;95880.41;5004656;28;19922;-87
2023/10/20 06:42:29;;;;;;;;;;;;;;;6.93;100.00;95872.78;5003062;28;19971;-87
2023/10/20 07:35:54;;;;;;;;;;;;;;;6.69;100.00;95939.78;5778517;23;20344;-83
2023/10/20 07:38:20;;;;;;;;;;;;;;;6.76;100.00;95953.22;5003334;28;19928;-83
2023/10/20 07:40:45;;;;;;;;;;;;;;;6.75;100.00;95962.09;5003629;28;19934;-83
2023/10/20 07:43:11;;;;;;;;;;;;;;;6.84;100.00;95965.72;5003494;28;19932;-82
2023/10/20 07:45:40;;;;;;;;;;;;;;;6.93;100.00;95964.91;5002698;28;19925;-82
2023/10/20 07:48:06;;;;;;;;;;;;;;;6.95;100.00;95973.47;5002032;28;19925;-82
2023/10/20 07:50:31;;;;;;;;;;;;;;;6.87;100.00;95983.84;5002053;28;19918;-82
2023/10/20 07:52:56;;;;;;;;;;;;;;;6.89;100.00;95981.91;5002387;28;19921;-84
2023/10/20 07:55:23;;;;;;;;;;;;;;;6.97;100.00;95984.69;5001639;28;21370;-83
2023/10/20 07:57:49;;;;;;;;;;;;;;;6.89;100.00;95982.78;5002293;28;19922;-83
2023/10/20 08:00:14;;;;;;;;;;;;;;;6.76;100.00;95978.72;5002464;28;19918;-83
2023/10/20 08:02:39;;;;;;;;;;;;;;;7.00;100.00;95981.78;5003291;28;19922;-83
2023/10/20 08:05:05;;;;;;;;;;;;;;;6.98;100.00;95978.47;5000778;28;20404;-83
2023/10/20 08:07:31;;;;;;;;;;;;;;;7.01;100.00;95978.19;5003277;28;19928;-86
2023/10/20 08:09:56;;;;;;;;;;;;;;;6.95;100.00;95981.38;5003626;28;20327;-83
2023/10/20 08:12:21;;;;;;;;;;;;;;;7.03;100.00;95984.16;5003209;28;19940;-88
2023/10/20 08:14:46;;;;;;;;;;;;;;;6.96;100.00;95983.06;5002938;28;19921;-85
2023/10/20 08:17:12;;;;;;;;;;;;;;;6.93;100.00;95983.31;5002976;28;20368;-83
2023/10/20 08:19:37;;;;;;;;;;;;;;;7.04;100.00;95982.38;5003428;28;20369;-83
2023/10/20 08:22:03;;;;;;;;;;;;;;;6.98;100.00;95980.28;5000397;28;19918;-83
2023/10/20 08:24:28;;;;;;;;;;;;;;;6.88;100.00;95975.00;5002683;28;19922;-83
2023/10/20 08:26:53;;;;;;;;;;;;;;;6.93;100.00;95978.06;5002941;28;19924;-84
2023/10/20 08:29:18;;;;;;;;;;;;;;;7.11;100.00;95980.03;5003147;28;20392;-84
2023/10/20 08:31:44;;;;;;;;;;;;;;;7.00;100.00;95984.44;5002921;28;20365;-86
2023/10/20 08:34:09;;;;;;;;;;;;;;;6.92;100.00;95986.91;5002432;28;20833;-83
2023/10/20 08:36:35;;;;;;;;;;;;;;;6.97;100.00;95984.69;5006812;28;19956;-83
2023/10/20 08:39:05;;;;;;;;;;;;;;;7.03;100.00;95981.53;5022643;28;19925;-82
2023/10/20 08:41:30;;;;;;;;;;;;;;;7.01;100.00;95980.00;5003980;28;19921;-94
2023/10/20 08:43:56;;;;;;;;;;;;;;;7.07;100.00;95982.94;5020776;28;19923;-82
2023/10/20 08:46:23;;;;;;;;;;;;;;;6.98;100.00;95986.38;5022636;28;19967;-83
2023/10/20 08:48:48;;;;;;;;;;;;;;;7.00;100.00;95979.16;5003595;28;19921;-85
2023/10/20 08:51:15;;;;;;;;;;;;;;;7.08;100.00;95981.97;5020589;28;19927;-82
2023/10/20 08:53:42;;;;;;;;;;;;;;;7.06;100.00;95978.63;5022624;28;19921;-82
2023/10/20 08:56:10;;;;;;;;;;;;;;;7.13;100.00;95980.72;5009926;28;20415;-81
2023/10/20 08:58:35;;;;;;;;;;;;;;;7.05;100.00;95982.25;5021965;28;19921;-81
2023/10/20 09:01:01;;;;;;;;;;;;;;;7.05;100.00;95982.25;5021879;28;19921;-81
2023/10/20 09:03:27;;;;;;;;;;;;;;;6.98;100.00;95988.19;5004001;28;20283;-81
2023/10/20 09:06:02;;;;;;;;;;;;;;;6.99;100.00;95984.56;5019831;28;19928;-84
2023/10/20 09:08:28;;;;;;;;;;;;;;;7.04;100.00;95988.47;5021698;28;19917;-84
2023/10/20 09:10:54;;;;;;;;;;;;;;;6.91;100.00;95991.34;5022419;28;19913;-81
2023/10/20 09:13:19;;;;;;;;;;;;;;;7.02;100.00;95981.66;5025827;28;19924;-81
2023/10/20 09:15:45;;;;;;;;;;;;;;;7.00;100.00;95983.59;5026133;28;20300;-81
2023/10/20 09:18:10;;;;;;;;;;;;;;;7.09;100.00;95986.25;5024755;28;20051;-81
2023/10/20 09:20:35;;;;;;;;;;;;;;;7.00;100.00;95980.97;5015098;28;19998;-83
2023/10/20 09:23:07;;;;;;;;;;;;;;;6.97;100.00;95983.88;5026494;28;19917;-81
2023/10/20 09:25:33;;;;;;;;;;;;;;;7.01;100.00;95980.00;5024958;28;20387;-81
2023/10/20 09:27:58;;;;;;;;;;;;;;;6.97;100.00;95978.59;5008084;28;19921;-83
2023/10/20 09:30:24;;;;;;;;;;;;;;;6.96;100.00;95976.97;5025719;28;19929;-82
2023/10/20 09:32:49;;;;;;;;;;;;;;;6.98;100.00;95970.56;5025728;28;20410;-81
2023/10/20 09:35:15;;;;;;;;;;;;;;;7.01;100.00;95962.41;5006801;28;20324;-84
2023/10/20 09:37:41;;;;;;;;;;;;;;;7.06;100.00;95973.34;5025527;28;19952;-81
2023/10/20 09:40:07;;;;;;;;;;;;;;;7.09;100.00;95978.34;5025476;28;20444;-87
2023/10/20 09:42:51;;;;;;;;;;;;;;;7.06;100.00;95969.91;5024544;28;19924;-83
2023/10/20 09:45:21;;;;;;;;;;;;;;;7.02;100.00;95971.13;5025724;28;19917;-82
2023/10/20 09:47:51;;;;;;;;;;;;;;;7.06;100.00;95967.28;5024879;28;19918;-83
2023/10/20 09:50:19;;;;;;;;;;;;;;;7.08;100.00;95974.06;5024349;28;20216;-83
2023/10/20 09:52:45;;;;;;;;;;;;;;;7.15;100.00;95984.03;5024408;28;20418;-83
2023/10/20 09:55:11;;;;;;;;;;;;;;;7.20;100.00;95972.13;5025466;28;19917;-83
2023/10/20 09:57:39;;;;;;;;;;;;;;;7.16;100.00;95983.88;5007904;28;19960;-84
2023/10/20 10:00:05;;;;;;;;;;;;;;;7.18;100.00;95975.84;5024579;28;19972;-82
2023/10/20 10:02:31;;;;;;;;;;;;;;;7.14;100.00;95974.47;5021399;28;19952;-81
2023/10/20 10:04:57;;;;;;;;;;;;;;;7.16;100.00;95972.53;5024707;28;19921;-83
2023/10/20 10:07:32;;;;;;;;;;;;;;;7.25;100.00;95980.44;5024419;28;19940;-85
2023/10/20 10:09:57;;;;;;;;;;;;;;;7.14;100.00;95977.13;5024571;28;20017;-84
2023/10/20 10:12:24;;;;;;;;;;;;;;;7.15;100.00;95976.13;5025107;28;20030;-84
2023/10/20 10:15:22;;;;;;;;;;;;;;;7.22;100.00;95966.72;5007340;28;19921;-85
2023/10/20 10:17:48;;;;;;;;;;;;;;;7.18;100.00;95981.13;5014263;28;19928;-83
2023/10/20 10:20:23;;;;;;;;;;;;;;;7.27;100.00;95998.75;5023171;28;19921;-84
2023/10/20 10:22:58;;;;;;;;;;;;;;;7.31;100.00;96013.31;5023908;28;19920;-84
2023/10/20 10:25:32;;;;;;;;;;;;;;;7.24;100.00;96018.28;5024599;28;19917;-83
2023/10/20 10:28:06;;;;;;;;;;;;;;;7.19;100.00;96017.03;5024056;28;19976;-83
2023/10/20 10:30:32;;;;;;;;;;;;;;;7.22;100.00;96019.38;5006915;28;19971;-85
2023/10/20 10:32:57;;;;;;;;;;;;;;;7.20;100.00;96009.00;5024670;28;19921;-87
2023/10/20 10:35:23;;;;;;;;;;;;;;;7.21;100.00;96010.66;5023229;28;19972;-84
2023/10/20 10:37:48;;;;;;;;;;;;;;;7.27;100.00;96006.63;5024132;28;20474;-86
2023/10/20 10:40:15;;;;;;;;;;;;;;;7.27;100.00;96004.84;5024656;28;19918;-83
2023/10/20 10:42:40;;;;;;;;;;;;;;;7.24;100.00;96006.91;5024555;28;19928;-83
2023/10/20 10:45:23;;;;;;;;;;;;;;;7.32;100.00;95999.16;5024337;28;19917;-83
2023/10/20 10:47:49;;;;;;;;;;;;;;;7.31;100.00;95992.25;5013763;28;19927;-83
2023/10/20 10:50:20;;;;;;;;;;;;;;;7.37;100.00;95996.09;5023086;28;19921;-87
2023/10/20 10:52:45;;;;;;;;;;;;;;;7.38;100.00;95990.69;5023994;28;19921;-83
2023/10/20 10:55:10;;;;;;;;;;;;;;;7.43;100.00;95996.38;5024022;28;20280;-85
2023/10/20 10:57:36;;;;;;;;;;;;;;;7.47;100.00;95999.59;5024248;28;20386;-84
2023/10/20 11:00:03;;;;;;;;;;;;;;;7.51;100.00;96010.66;5024387;28;20394;-84
2023/10/20 11:02:28;;;;;;;;;;;;;;;7.46;100.00;96006.63;5023012;28;20408;-86
2023/10/20 11:04:54;;;;;;;;;;;;;;;7.42;100.00;96015.81;5023784;28;19925;-84
2023/10/20 11:07:20;;;;;;;;;;;;;;;7.55;100.00;96030.50;5005842;28;19917;-84
2023/10/20 11:09:47;;;;;;;;;;;;;;;7.49;100.00;96047.69;5023937;28;19921;-86
2023/10/20 11:12:13;;;;;;;;;;;;;;;7.56;100.00;96066.41;5023853;28;19964;-85
2023/10/20 11:14:39;;;;;;;;;;;;;;;7.55;100.00;96068.22;5024091;28;20405;-83
2023/10/20 11:17:04;;;;;;;;;;;;;;;7.64;100.00;96077.09;5006037;28;19921;-82
2023/10/20 11:19:29;;;;;;;;;;;;;;;7.61;100.00;96080.84;5023400;28;19921;-86
2023/10/20 11:21:55;;;;;;;;;;;;;;;7.63;100.00;96093.88;5022350;28;19923;-84
2023/10/20 11:24:26;;;;;;;;;;;;;;;7.59;100.00;96095.09;5024171;28;19917;-86
2023/10/20 11:26:55;;;;;;;;;;;;;;;7.59;100.00;96095.09;5004947;28;20364;-84
2023/10/20 11:29:21;;;;;;;;;;;;;;;7.61;100.00;96098.44;5006341;28;19921;-83
2023/10/20 11:31:47;;;;;;;;;;;;;;;7.60;100.00;96109.97;5023422;28;19979;-84
2023/10/20 11:34:20;;;;;;;;;;;;;;;7.67;100.00;96121.59;5023035;28;19944;-90
2023/10/20 11:36:45;;;;;;;;;;;;;;;7.64;100.00;96127.13;5004633;28;20506;-88
2023/10/20 11:39:11;;;;;;;;;;;;;;;7.58;100.00;96133.81;5023508;28;19924;-83
2023/10/20 11:41:36;;;;;;;;;;;;;;;7.64;100.00;96135.91;5023093;28;20119;-83
2023/10/20 11:44:01;;;;;;;;;;;;;;;7.56;100.00;96129.63;5023439;28;19963;-84
2023/10/20 11:46:30;;;;;;;;;;;;;;;7.48;100.00;96145.28;5023310;28;19917;-88
2023/10/20 11:48:55;;;;;;;;;;;;;;;7.48;100.00;96150.56;5023158;28;20422;-85
2023/10/20 11:51:20;;;;;;;;;;;;;;;7.48;100.00;96153.19;5022140;28;19917;-85
2023/10/20 11:53:45;;;;;;;;;;;;;;;7.53;100.00;96159.72;5023269;28;20464;-86
2023/10/20 11:56:10;;;;;;;;;;;;;;;7.54;100.00;96157.91;5005335;28;20353;-85
2023/10/20 11:58:37;;;;;;;;;;;;;;;7.49;100.00;96168.84;5022781;28;19967;-84
2023/10/20 12:01:02;;;;;;;;;;;;;;;7.52;100.00;96183.56;5021803;28;19917;-84
2023/10/20 12:03:28;;;;;;;;;;;;;;;7.53;100.00;96180.81;5005213;28;19986;-85
2023/10/20 12:05:55;;;;;;;;;;;;;;;7.55;100.00;96183.31;5022229;28;19976;-84
2023/10/20 12:08:20;;;;;;;;;;;;;;;7.46;100.00;96201.56;5022628;28;19925;-88
2023/10/20 12:10:45;;;;;;;;;;;;;;;7.50;100.00;96207.41;5013145;28;19921;-88
2023/10/20 12:13:12;;;;;;;;;;;;;;;7.57;100.00;96215.63;5022629;28;19940;-85
2023/10/20 12:15:37;;;;;;;;;;;;;;;7.55;100.00;96209.66;5022996;28;19975;-83
2023/10/20 12:18:03;;;;;;;;;;;;;;;7.60;100.00;96202.16;5022491;28;20362;-83
2023/10/20 12:20:30;;;;;;;;;;;;;;;7.53;100.00;96214.19;5021493;28;19921;-83
2023/10/20 12:22:58;;;;;;;;;;;;;;;7.48;100.00;96209.31;5021459;28;20258;-84
2023/10/20 12:25:23;;;;;;;;;;;;;;;7.51;100.00;96197.69;5005574;28;19918;-83
2023/10/20 12:27:49;;;;;;;;;;;;;;;7.54;100.00;96200.06;5022185;28;19921;-84
2023/10/20 12:30:15;;;;;;;;;;;;;;;7.43;100.00;96220.25;5022730;28;20000;-84
2023/10/20 12:32:42;;;;;;;;;;;;;;;7.54;100.00;96229.06;5004707;28;20365;-83
2023/10/20 12:35:10;;;;;;;;;;;;;;;7.51;100.00;96235.41;5020806;28;19928;-82
2023/10/20 12:37:36;;;;;;;;;;;;;;;7.56;100.00;96227.09;5022733;28;19925;-84
2023/10/20 12:40:01;;;;;;;;;;;;;;;7.57;100.00;96247.22;5005278;28;20328;-85
2023/10/20 12:42:27;;;;;;;;;;;;;;;7.48;100.00;96246.22;5022147;28;19923;-85
2023/10/20 12:44:53;;;;;;;;;;;;;;;7.45;100.00;96247.31;5022055;28;19928;-89
2023/10/20 12:47:19;;;;;;;;;;;;;;;7.50;100.00;96246.06;5012287;28;19918;-85
2023/10/20 12:49:44;;;;;;;;;;;;;;;7.54;100.00;96247.50;5022254;28;19962;-90
2023/10/20 12:52:12;;;;;;;;;;;;;;;7.46;100.00;96263.94;5021208;28;19921;-83
2023/10/20 12:54:37;;;;;;;;;;;;;;;7.43;100.00;96251.03;5003326;28;20003;-85
2023/10/20 12:57:03;;;;;;;;;;;;;;;7.46;100.00;96254.25;5021969;28;20428;-86
2023/10/20 12:59:28;;;;;;;;;;;;;;;7.51;100.00;96260.94;5022486;28;20392;-87
2023/10/20 13:01:53;;;;;;;;;;;;;;;7.52;100.00;96273.13;5004173;28;20261;-84
2023/10/20 13:04:19;;;;;;;;;;;;;;;7.42;100.00;96279.19;5021824;28;19921;-87
2023/10/20 13:06:44;;;;;;;;;;;;;;;7.41;100.00;96282.78;5020728;28;20003;-86
2023/10/20 13:09:10;;;;;;;;;;;;;;;7.60;100.00;96287.31;5004507;28;19925;-87
2023/10/20 13:11:35;;;;;;;;;;;;;;;7.51;100.00;96277.56;5021888;28;19925;-83
2023/10/20 13:14:01;;;;;;;;;;;;;;;7.53;100.00;96274.78;5021920;28;19921;-83
2023/10/20 13:16:26;;;;;;;;;;;;;;;7.44;100.00;96274.63;5004136;28;20008;-84
2023/10/20 13:18:52;;;;;;;;;;;;;;;7.51;100.00;96288.09;5021664;28;20345;-83
2023/10/20 13:21:17;;;;;;;;;;;;;;;7.56;100.00;96288.56;5020758;28;19917;-84
2023/10/20 13:23:42;;;;;;;;;;;;;;;7.51;100.00;96297.81;5004389;28;19939;-85
2023/10/20 13:26:07;;;;;;;;;;;;;;;7.43;100.00;96307.19;5021610;28;20406;-83
2023/10/20 13:28:34;;;;;;;;;;;;;;;7.50;100.00;96311.94;5021561;28;20036;-82
2023/10/20 13:31:03;;;;;;;;;;;;;;;7.56;100.00;96300.88;5003086;28;19972;-82
2023/10/20 13:33:30;;;;;;;;;;;;;;;7.45;100.00;96297.38;5021624;28;19918;-85
2023/10/20 13:35:59;;;;;;;;;;;;;;;7.48;100.00;96308.59;5020275;28;19928;-83
2023/10/20 13:38:24;;;;;;;;;;;;;;;7.49;100.00;96320.81;5004225;28;19928;-84
2023/10/20 13:40:50;;;;;;;;;;;;;;;7.49;100.00;96313.75;5021476;28;20005;-86
2023/10/20 13:43:15;;;;;;;;;;;;;;;7.56;100.00;96316.69;5021447;28;19960;-83
2023/10/20 13:45:40;;;;;;;;;;;;;;;7.46;100.00;96312.19;5004398;28;19917;-84
2023/10/20 13:48:06;;;;;;;;;;;;;;;7.50;100.00;96318.06;5021792;28;20496;-83
2023/10/20 13:50:31;;;;;;;;;;;;;;;7.40;100.00;96312.75;5020237;28;19918;-84
2023/10/20 13:52:56;;;;;;;;;;;;;;;7.40;100.00;96318.00;5011937;28;20388;-86
2023/10/20 13:55:22;;;;;;;;;;;;;;;7.61;100.00;96319.75;5003902;28;19921;-84
2023/10/20 13:57:49;;;;;;;;;;;;;;;7.50;100.00;96328.59;5021451;28;19917;-84
2023/10/20 14:00:14;;;;;;;;;;;;;;;7.49;100.00;96320.81;5025468;28;19928;-83
2023/10/20 14:02:40;;;;;;;;;;;;;;;7.48;100.00;96324.41;5025272;28;19913;-83
2023/10/20 14:05:05;;;;;;;;;;;;;;;7.41;100.00;96332.00;5023755;28;20041;-83
2023/10/20 14:07:31;;;;;;;;;;;;;;;7.49;100.00;96329.53;5025360;28;20395;-84
2023/10/20 14:09:56;;;;;;;;;;;;;;;7.45;100.00;96330.75;5025341;28;19913;-83
2023/10/20 14:12:21;;;;;;;;;;;;;;;7.55;100.00;96341.38;5023801;28;20475;-83
2023/10/20 14:14:47;;;;;;;;;;;;;;;7.48;100.00;96341.03;5024856;28;20451;-84
2023/10/20 14:17:12;;;;;;;;;;;;;;;7.55;100.00;96349.28;5025319;28;19917;-83
2023/10/20 14:19:37;;;;;;;;;;;;;;;7.51;100.00;96348.69;5025154;28;19921;-84
2023/10/20 14:22:03;;;;;;;;;;;;;;;9.29;100.00;96349.78;5023876;28;20384;-83
2023/10/20 14:24:28;;;;;;;;;;;;;;;8.02;100.00;96346.97;5007034;28;19924;-85
2023/10/20 14:26:54;;;;;;;;;;;;;;;7.76;100.00;96357.97;5024239;28;19952;-86
2023/10/20 14:29:20;;;;;;;;;;;;;;;7.67;100.00;96352.66;5024677;28;19921;-82
2023/10/20 14:31:45;;;;;;;;;;;;;;;7.62;100.00;96353.03;5007405;28;19925;-83
2023/10/20 14:34:10;;;;;;;;;;;;;;;7.51;100.00;96356.59;5024568;28;19917;-84
2023/10/20 14:36:36;;;;;;;;;;;;;;;7.54;100.00;96347.59;5023647;28;19925;-83
2023/10/20 14:39:01;;;;;;;;;;;;;;;7.52;100.00;96355.63;5006677;28;19918;-83
2023/10/20 14:41:26;;;;;;;;;;;;;;;7.56;100.00;96356.19;5024277;28;20296;-84
2023/10/20 14:43:52;;;;;;;;;;;;;;;7.50;100.00;96360.22;5024501;28;20273;-83
2023/10/20 14:46:17;;;;;;;;;;;;;;;7.44;100.00;96364.19;5006811;28;19921;-83
2023/10/20 14:48:43;;;;;;;;;;;;;;;7.49;100.00;96363.78;5024186;28;19918;-83
2023/10/20 14:51:10;;;;;;;;;;;;;;;7.53;100.00;96359.94;5023034;28;19933;-86
2023/10/20 14:53:36;;;;;;;;;;;;;;;7.55;100.00;96359.81;5013642;28;20028;-83
2023/10/20 14:56:04;;;;;;;;;;;;;;;7.50;100.00;96364.63;5024024;28;20016;-84
2023/10/20 14:58:30;;;;;;;;;;;;;;;7.42;100.00;96349.50;5024455;28;19926;-84
2023/10/20 15:00:56;;;;;;;;;;;;;;;7.56;100.00;96353.56;5005054;28;19921;-85
2023/10/20 15:03:21;;;;;;;;;;;;;;;7.50;100.00;96356.72;5023924;28;20049;-88
2023/10/20 15:05:47;;;;;;;;;;;;;;;7.51;100.00;96353.94;5023385;28;20396;-84
2023/10/20 15:08:12;;;;;;;;;;;;;;;7.51;100.00;96359.22;5006257;28;19928;-84
2023/10/20 15:10:37;;;;;;;;;;;;;;;7.50;100.00;96362.00;5023159;28;19921;-85
2023/10/20 15:13:06;;;;;;;;;;;;;;;7.56;100.00;96359.69;5023730;28;19921;-84
2023/10/20 15:15:32;;;;;;;;;;;;;;;7.48;100.00;96362.13;5006739;28;19924;-88
2023/10/20 15:17:57;;;;;;;;;;;;;;;7.52;100.00;96362.72;5023503;28;19924;-84
2023/10/20 15:20:23;;;;;;;;;;;;;;;7.45;100.00;96368.50;5022498;28;19917;-85
2023/10/20 15:22:48;;;;;;;;;;;;;;;7.45;100.00;96349.19;5006617;28;19921;-84
2023/10/20 15:25:13;;;;;;;;;;;;;;;7.45;100.00;96347.44;5022966;28;20364;-85
2023/10/20 15:27:41;;;;;;;;;;;;;;;7.35;100.00;96346.50;5024163;28;20363;-91
2023/10/20 15:30:07;;;;;;;;;;;;;;;7.31;100.00;96344.25;5014086;28;19918;-85
2023/10/20 15:32:33;;;;;;;;;;;;;;;7.31;100.00;96353.03;5023407;28;20412;-87
2023/10/20 15:34:59;;;;;;;;;;;;;;;7.38;100.00;96359.44;5021277;28;20398;-85
2023/10/20 15:37:24;;;;;;;;;;;;;;;7.41;100.00;96368.88;5005012;28;20015;-84
2023/10/20 15:39:50;;;;;;;;;;;;;;;7.51;100.00;96366.31;5023673;28;19922;-84
2023/10/20 15:42:15;;;;;;;;;;;;;;;7.46;100.00;96374.59;5023031;28;19921;-84
2023/10/20 15:44:41;;;;;;;;;;;;;;;7.45;100.00;96371.13;5023045;28;19948;-85
2023/10/20 15:47:06;;;;;;;;;;;;;;;7.40;100.00;96365.41;5024164;28;19917;-83
2023/10/20 15:49:31;;;;;;;;;;;;;;;7.38;100.00;96371.78;5023303;28;19921;-84
2023/10/20 15:51:56;;;;;;;;;;;;;;;7.32;100.00;96367.00;5004101;28;19917;-83
2023/10/20 15:54:23;;;;;;;;;;;;;;;7.28;100.00;96372.53;5022920;28;19917;-84
2023/10/20 15:56:51;;;;;;;;;;;;;;;7.40;100.00;96381.22;5023663;28;19932;-85
2023/10/20 15:59:16;;;;;;;;;;;;;;;7.37;100.00;96386.75;5005195;28;19926;-85
2023/10/20 16:01:42;;;;;;;;;;;;;;;7.42;100.00;96383.72;5022701;28;19966;-84
2023/10/20 16:04:07;;;;;;;;;;;;;;;7.35;100.00;96388.66;5022998;28;19929;-83
2023/10/20 16:06:32;;;;;;;;;;;;;;;7.34;100.00;96389.63;5021803;28;20306;-83
2023/10/20 16:08:58;;;;;;;;;;;;;;;7.39;100.00;96397.16;5022996;28;19950;-83
2023/10/20 16:11:23;;;;;;;;;;;;;;;7.35;100.00;96396.56;5022626;28;20590;-83
2023/10/20 16:13:49;;;;;;;;;;;;;;;7.34;100.00;96400.19;5013419;28;19917;-86
2023/10/20 16:16:21;;;;;;;;;;;;;;;7.31;100.00;96408.31;5022902;28;19917;-83
2023/10/20 16:18:46;;;;;;;;;;;;;;;7.32;100.00;96412.63;5022351;28;20032;-87
2023/10/20 16:21:12;;;;;;;;;;;;;;;7.38;100.00;96421.81;5003411;28;20435;-84
2023/10/20 16:23:38;;;;;;;;;;;;;;;7.34;100.00;96425.66;5022021;28;19917;-81
2023/10/20 16:26:04;;;;;;;;;;;;;;;7.43;100.00;96432.78;5023056;28;20000;-85
2023/10/20 16:28:38;;;;;;;;;;;;;;;7.25;100.00;96436.00;5013070;28;20012;-91
2023/10/20 16:31:04;;;;;;;;;;;;;;;7.37;100.00;96428.88;5029180;23;19928;-89
2023/10/20 16:33:29;;;;;;;;;;;;;;;7.40;100.00;96435.69;5005706;28;19925;-89
2023/10/20 16:35:55;;;;;;;;;;;;;;;7.34;100.00;96438.81;5013391;28;19925;-84
2023/10/20 16:38:20;;;;;;;;;;;;;;;7.34;100.00;96438.81;5031968;28;19927;-86
2023/10/20 16:40:51;;;;;;;;;;;;;;;7.37;100.00;96442.06;5032367;28;19947;-85
2023/10/20 16:43:18;;;;;;;;;;;;;;;7.39;100.00;96442.75;5014029;28;20024;-82
2023/10/20 16:45:44;;;;;;;;;;;;;;;7.36;100.00;96439.56;5031547;28;19916;-89
2023/10/20 16:48:12;;;;;;;;;;;;;;;7.34;100.00;96444.94;5032051;28;19956;-86
2023/10/20 16:50:38;;;;;;;;;;;;;;;7.31;100.00;96436.44;5013333;28;20355;-91
2023/10/20 16:53:03;;;;;;;;;;;;;;;7.41;100.00;96440.00;5013918;28;19964;-83
2023/10/20 16:55:28;;;;;;;;;;;;;;;7.42;100.00;96447.78;5031701;28;20430;-84
2023/10/20 16:57:56;;;;;;;;;;;;;;;7.38;100.00;96446.34;5032303;28;19918;-87
2023/10/20 17:00:21;;;;;;;;;;;;;;;7.36;100.00;96453.56;5031830;28;19924;-85
2023/10/20 17:02:47;;;;;;;;;;;;;;;7.38;100.00;96443.72;5032146;28;19925;-83
2023/10/20 17:05:12;;;;;;;;;;;;;;;7.44;100.00;96443.22;5013065;28;19971;-82
2023/10/20 17:07:37;;;;;;;;;;;;;;;7.75;100.00;96451.16;5031783;28;19927;-85
2023/10/20 17:10:04;;;;;;;;;;;;;;;7.52;100.00;96452.28;5032011;28;20356;-83
2023/10/20 17:12:29;;;;;;;;;;;;;;;7.39;100.00;96447.19;5014389;28;19917;-81
2023/10/20 17:14:56;;;;;;;;;;;;;;;7.40;100.00;96462.88;5030913;28;19924;-83
2023/10/20 17:17:21;;;;;;;;;;;;;;;7.42;100.00;96454.84;5036562;23;19917;-83
2023/10/20 17:19:47;;;;;;;;;;;;;;;7.40;100.00;96454.97;4982641;28;19937;-82
2023/10/20 17:22:12;;;;;;;;;;;;;;;7.39;100.00;96450.66;4990897;28;19925;-86
2023/10/20 17:24:38;;;;;;;;;;;;;;;7.34;100.00;96455.47;4992605;28;19921;-87
2023/10/20 17:27:03;;;;;;;;;;;;;;;7.37;100.00;96460.50;4992353;28;19918;-84
2023/10/20 17:29:28;;;;;;;;;;;;;;;7.31;100.00;96468.91;4982681;28;19922;-83
2023/10/20 17:31:54;;;;;;;;;;;;;;;7.32;100.00;96481.09;4992632;28;19972;-84
2023/10/20 17:34:19;;;;;;;;;;;;;;;7.30;100.00;96480.38;4996256;28;19922;-86
2023/10/20 17:36:44;;;;;;;;;;;;;;;7.41;100.00;96482.16;4994707;28;19918;-84
2023/10/20 17:39:10;;;;;;;;;;;;;;;7.37;100.00;96486.84;4996180;28;19929;-84
2023/10/20 17:41:35;;;;;;;;;;;;;;;7.42;100.00;96489.09;4996190;28;19925;-86
2023/10/20 17:44:00;;;;;;;;;;;;;;;7.32;100.00;96486.34;4996037;28;19941;-84
2023/10/20 17:46:26;;;;;;;;;;;;;;;7.38;100.00;96488.50;4995893;28;19925;-86
2023/10/20 17:48:51;;;;;;;;;;;;;;;7.32;100.00;96491.63;4995943;28;19918;-84
2023/10/20 17:51:17;;;;;;;;;;;;;;;7.36;100.00;96490.41;4994730;28;20004;-92
2023/10/20 17:53:53;;;;;;;;;;;;;;;7.39;100.00;96495.44;4995651;28;20419;-86
2023/10/20 17:56:18;;;;;;;;;;;;;;;7.37;100.00;96492.09;5021208;28;19950;-81
2023/10/20 17:58:44;;;;;;;;;;;;;;;7.38;100.00;96492.94;5022291;28;19927;-84
2023/10/20 18:01:10;;;;;;;;;;;;;;;7.32;100.00;96489.00;5022786;28;19921;-83
2023/10/20 18:03:35;;;;;;;;;;;;;;;7.28;100.00;96479.69;5022530;28;20360;-84
2023/10/20 18:06:05;;;;;;;;;;;;;;;7.27;100.00;96470.09;5020620;28;19944;-82
2023/10/20 18:08:30;;;;;;;;;;;;;;;7.32;100.00;96481.09;5022484;28;19918;-83
2023/10/20 18:10:56;;;;;;;;;;;;;;;7.35;100.00;96477.38;5005680;28;19980;-87
2023/10/20 18:13:21;;;;;;;;;;;;;;;7.30;100.00;96475.13;5005906;28;20002;-86
2023/10/20 18:15:46;;;;;;;;;;;;;;;7.32;100.00;96475.81;5021832;28;19917;-86
2023/10/20 18:18:12;;;;;;;;;;;;;;;7.31;100.00;96470.69;5005138;28;19932;-83
2023/10/20 18:20:38;;;;;;;;;;;;;;;7.26;100.00;96473.72;5020257;28;20372;-84
2023/10/20 18:23:05;;;;;;;;;;;;;;;7.29;100.00;96478.69;5022548;28;19921;-83